sensor_id;sensor_type;location;lat;lon;timestamp;temperature;humidity
6964;DHT22;3522;50.856;7.278;2022-12-18T00:01:42;-4.80;99.90
6964;DHT22;3522;50.856;7.278;2022-12-18T00:04:12;-4.80;99.90
6964;DHT22;3522;50.856;7.278;2022-12-18T00:06:42;-4.70;99.90
6964;DHT22;3522;50.856;7.278;2022-12-18T00:09:09;-4.80;99.90
6964;DHT22;3522;50.856;7.278;2022-12-18T00:11:36;-4.70;99.90
6964;DHT22;3522;50.856;7.278;2022-12-18T00:14:02;-4.80;99.90
6964;DHT22;3522;50.856;7.278;2022-12-18T00:16:29;-4.70;99.90
6964;DHT22;3522;50.856;7.278;2022-12-18T00:18:58;-4.70;99.90
6964;DHT22;3522;50.856;7.278;2022-12-18T00:21:25;-4.70;99.90
6964;DHT22;3522;50.856;7.278;2022-12-18T00:23:53;-4.80;99.90
6964;DHT22;3522;50.856;7.278;2022-12-18T00:26:20;-4.80;99.90
6964;DHT22;3522;50.856;7.278;2022-12-18T00:28:48;-4.80;99.90
6964;DHT22;3522;50.856;7.278;2022-12-18T00:31:16;-4.90;99.90
6964;DHT22;3522;50.856;7.278;2022-12-18T00:33:43;-4.90;99.90
6964;DHT22;3522;50.856;7.278;2022-12-18T00:36:10;-4.90;99.90
6964;DHT22;3522;50.856;7.278;2022-12-18T00:38:37;-4.90;99.90
6964;DHT22;3522;50.856;7.278;2022-12-18T00:41:05;-5.00;99.90
6964;DHT22;3522;50.856;7.278;2022-12-18T00:43:32;-5.00;99.90
6964;DHT22;3522;50.856;7.278;2022-12-18T00:45:58;-4.90;99.90
6964;DHT22;3522;50.856;7.278;2022-12-18T00:48:24;-4.90;99.90
6964;DHT22;3522;50.856;7.278;2022-12-18T00:50:51;-4.90;99.90
6964;DHT22;3522;50.856;7.278;2022-12-18T00:53:18;-4.90;99.90
6964;DHT22;3522;50.856;7.278;2022-12-18T00:55:44;-4.80;99.90
6964;DHT22;3522;50.856;7.278;2022-12-18T00:58:13;-4.90;99.90
6964;DHT22;3522;50.856;7.278;2022-12-18T01:00:39;-4.90;99.90
6964;DHT22;3522;50.856;7.278;2022-12-18T01:03:06;-4.80;99.90
6964;DHT22;3522;50.856;7.278;2022-12-18T01:05:32;-4.90;99.90
6964;DHT22;3522;50.856;7.278;2022-12-18T01:07:59;-4.80;99.90
6964;DHT22;3522;50.856;7.278;2022-12-18T01:10:28;-4.80;99.90
6964;DHT22;3522;50.856;7.278;2022-12-18T01:12:55;-4.80;99.90
6964;DHT22;3522;50.856;7.278;2022-12-18T01:15:23;-4.80;99.90
6964;DHT22;3522;50.856;7.278;2022-12-18T01:17:51;-4.70;99.90
6964;DHT22;3522;50.856;7.278;2022-12-18T01:20:18;-4.70;99.90
6964;DHT22;3522;50.856;7.278;2022-12-18T01:22:44;-4.70;99.90
6964;DHT22;3522;50.856;7.278;2022-12-18T01:25:11;-4.70;99.90
6964;DHT22;3522;50.856;7.278;2022-12-18T01:27:38;-4.70;99.90
6964;DHT22;3522;50.856;7.278;2022-12-18T01:30:05;-4.70;99.90
6964;DHT22;3522;50.856;7.278;2022-12-18T01:32:33;-4.60;99.90
6964;DHT22;3522;50.856;7.278;2022-12-18T01:34:59;-4.60;99.90
6964;DHT22;3522;50.856;7.278;2022-12-18T01:37:26;-4.60;99.90
6964;DHT22;3522;50.856;7.278;2022-12-18T01:39:52;-4.60;99.90
6964;DHT22;3522;50.856;7.278;2022-12-18T01:42:19;-4.60;99.90
6964;DHT22;3522;50.856;7.278;2022-12-18T01:44:57;-4.60;99.90
6964;DHT22;3522;50.856;7.278;2022-12-18T01:47:25;-4.60;99.90
6964;DHT22;3522;50.856;7.278;2022-12-18T01:49:54;-4.60;99.90
6964;DHT22;3522;50.856;7.278;2022-12-18T01:52:21;-4.60;99.90
6964;DHT22;3522;50.856;7.278;2022-12-18T01:54:48;-4.60;99.90
6964;DHT22;3522;50.856;7.278;2022-12-18T01:57:16;-4.60;99.90
6964;DHT22;3522;50.856;7.278;2022-12-18T01:59:43;-4.50;99.90
6964;DHT22;3522;50.856;7.278;2022-12-18T02:02:11;-4.50;99.90
6964;DHT22;3522;50.856;7.278;2022-12-18T02:04:38;-4.50;99.90
6964;DHT22;3522;50.856;7.278;2022-12-18T02:07:06;-4.50;99.90
6964;DHT22;3522;50.856;7.278;2022-12-18T02:09:38;-4.50;99.90
6964;DHT22;3522;50.856;7.278;2022-12-18T02:12:10;-4.50;99.90
6964;DHT22;3522;50.856;7.278;2022-12-18T02:14:40;-4.40;99.90
6964;DHT22;3522;50.856;7.278;2022-12-18T02:17:09;-4.40;99.90
6964;DHT22;3522;50.856;7.278;2022-12-18T02:19:40;-4.40;99.90
6964;DHT22;3522;50.856;7.278;2022-12-18T02:22:14;-4.40;99.90
6964;DHT22;3522;50.856;7.278;2022-12-18T02:24:44;-4.40;99.90
6964;DHT22;3522;50.856;7.278;2022-12-18T02:27:15;-4.40;99.90
6964;DHT22;3522;50.856;7.278;2022-12-18T02:29:44;-4.40;99.90
6964;DHT22;3522;50.856;7.278;2022-12-18T02:32:14;-4.40;99.90
6964;DHT22;3522;50.856;7.278;2022-12-18T02:34:41;-4.40;99.90
6964;DHT22;3522;50.856;7.278;2022-12-18T02:37:10;-4.50;99.90
6964;DHT22;3522;50.856;7.278;2022-12-18T02:39:39;-4.50;99.90
6964;DHT22;3522;50.856;7.278;2022-12-18T02:42:06;-4.50;99.90
6964;DHT22;3522;50.856;7.278;2022-12-18T02:44:34;-4.50;99.90
6964;DHT22;3522;50.856;7.278;2022-12-18T02:47:01;-4.50;99.90
6964;DHT22;3522;50.856;7.278;2022-12-18T02:49:31;-4.50;99.90
6964;DHT22;3522;50.856;7.278;2022-12-18T02:52:02;-4.60;99.90
6964;DHT22;3522;50.856;7.278;2022-12-18T02:57:17;-4.60;99.90
6964;DHT22;3522;50.856;7.278;2022-12-18T02:59:49;-4.60;99.90
6964;DHT22;3522;50.856;7.278;2022-12-18T03:02:19;-4.60;99.90
6964;DHT22;3522;50.856;7.278;2022-12-18T03:04:48;-4.60;99.90
6964;DHT22;3522;50.856;7.278;2022-12-18T03:07:17;-4.60;99.90
6964;DHT22;3522;50.856;7.278;2022-12-18T03:09:46;-4.60;99.90
6964;DHT22;3522;50.856;7.278;2022-12-18T03:12:15;-4.60;99.90
6964;DHT22;3522;50.856;7.278;2022-12-18T03:14:54;-4.60;99.90
6964;DHT22;3522;50.856;7.278;2022-12-18T03:17:23;-4.60;99.90
6964;DHT22;3522;50.856;7.278;2022-12-18T03:19:51;-4.60;99.90
6964;DHT22;3522;50.856;7.278;2022-12-18T03:22:18;-4.60;99.90
6964;DHT22;3522;50.856;7.278;2022-12-18T03:24:46;-4.60;99.90
6964;DHT22;3522;50.856;7.278;2022-12-18T03:27:14;-4.60;99.90
6964;DHT22;3522;50.856;7.278;2022-12-18T03:29:44;-4.60;99.90
6964;DHT22;3522;50.856;7.278;2022-12-18T03:32:14;-4.60;99.90
6964;DHT22;3522;50.856;7.278;2022-12-18T03:34:42;-4.60;99.90
6964;DHT22;3522;50.856;7.278;2022-12-18T03:37:10;-4.60;99.90
6964;DHT22;3522;50.856;7.278;2022-12-18T03:39:37;-4.60;99.90
6964;DHT22;3522;50.856;7.278;2022-12-18T03:42:05;-4.70;99.90
6964;DHT22;3522;50.856;7.278;2022-12-18T03:44:34;-4.70;99.90
6964;DHT22;3522;50.856;7.278;2022-12-18T03:47:04;-4.80;99.90
6964;DHT22;3522;50.856;7.278;2022-12-18T03:49:34;-4.80;99.90
6964;DHT22;3522;50.856;7.278;2022-12-18T03:52:02;-4.80;99.90
6964;DHT22;3522;50.856;7.278;2022-12-18T03:54:30;-4.80;99.90
6964;DHT22;3522;50.856;7.278;2022-12-18T03:56:58;-4.80;99.90
6964;DHT22;3522;50.856;7.278;2022-12-18T03:59:25;-4.80;99.90
6964;DHT22;3522;50.856;7.278;2022-12-18T04:01:53;-4.80;99.90
6964;DHT22;3522;50.856;7.278;2022-12-18T04:04:20;-4.80;99.90
6964;DHT22;3522;50.856;7.278;2022-12-18T04:06:49;-4.80;99.90
6964;DHT22;3522;50.856;7.278;2022-12-18T04:09:16;-4.80;99.90
6964;DHT22;3522;50.856;7.278;2022-12-18T04:11:44;-4.90;99.90
6964;DHT22;3522;50.856;7.278;2022-12-18T04:14:12;-4.90;99.90
6964;DHT22;3522;50.856;7.278;2022-12-18T04:16:38;-4.90;99.90
6964;DHT22;3522;50.856;7.278;2022-12-18T04:19:05;-5.00;99.90
6964;DHT22;3522;50.856;7.278;2022-12-18T04:21:31;-5.00;99.90
6964;DHT22;3522;50.856;7.278;2022-12-18T04:23:59;-5.00;99.90
6964;DHT22;3522;50.856;7.278;2022-12-18T04:26:26;-5.00;99.90
6964;DHT22;3522;50.856;7.278;2022-12-18T04:28:52;-5.10;99.90
6964;DHT22;3522;50.856;7.278;2022-12-18T04:31:19;-5.10;99.90
6964;DHT22;3522;50.856;7.278;2022-12-18T04:33:45;-5.10;99.90
6964;DHT22;3522;50.856;7.278;2022-12-18T04:36:12;-5.10;99.90
6964;DHT22;3522;50.856;7.278;2022-12-18T04:38:38;-5.00;99.90
6964;DHT22;3522;50.856;7.278;2022-12-18T04:41:06;-5.00;99.90
6964;DHT22;3522;50.856;7.278;2022-12-18T04:43:33;-5.00;99.90
6964;DHT22;3522;50.856;7.278;2022-12-18T04:46:03;-4.90;99.90
6964;DHT22;3522;50.856;7.278;2022-12-18T04:48:29;-4.90;99.90
6964;DHT22;3522;50.856;7.278;2022-12-18T04:50:56;-4.80;99.90
6964;DHT22;3522;50.856;7.278;2022-12-18T04:53:22;-4.80;99.90
6964;DHT22;3522;50.856;7.278;2022-12-18T04:55:49;-4.80;99.90
6964;DHT22;3522;50.856;7.278;2022-12-18T04:58:17;-4.70;99.90
6964;DHT22;3522;50.856;7.278;2022-12-18T05:00:43;-4.80;99.90
6964;DHT22;3522;50.856;7.278;2022-12-18T05:03:10;-4.70;99.90
6964;DHT22;3522;50.856;7.278;2022-12-18T05:05:36;-4.80;99.90
6964;DHT22;3522;50.856;7.278;2022-12-18T05:08:03;-4.80;99.90
6964;DHT22;3522;50.856;7.278;2022-12-18T05:10:30;-4.70;99.90
6964;DHT22;3522;50.856;7.278;2022-12-18T05:12:56;-4.80;99.90
6964;DHT22;3522;50.856;7.278;2022-12-18T05:15:28;-4.70;99.90
6964;DHT22;3522;50.856;7.278;2022-12-18T05:17:55;-4.80;99.90
6964;DHT22;3522;50.856;7.278;2022-12-18T05:20:22;-4.80;99.90
6964;DHT22;3522;50.856;7.278;2022-12-18T05:22:48;-4.80;99.90
6964;DHT22;3522;50.856;7.278;2022-12-18T05:25:15;-4.80;99.90
6964;DHT22;3522;50.856;7.278;2022-12-18T05:27:42;-4.90;99.90
6964;DHT22;3522;50.856;7.278;2022-12-18T05:30:09;-4.90;99.90
6964;DHT22;3522;50.856;7.278;2022-12-18T05:32:37;-4.90;99.90
6964;DHT22;3522;50.856;7.278;2022-12-18T05:35:04;-4.90;99.90
6964;DHT22;3522;50.856;7.278;2022-12-18T05:37:31;-4.90;99.90
6964;DHT22;3522;50.856;7.278;2022-12-18T05:39:57;-4.90;99.90
6964;DHT22;3522;50.856;7.278;2022-12-18T05:42:24;-4.90;99.90
6964;DHT22;3522;50.856;7.278;2022-12-18T05:44:51;-4.90;99.90
6964;DHT22;3522;50.856;7.278;2022-12-18T05:47:17;-4.90;99.90
6964;DHT22;3522;50.856;7.278;2022-12-18T05:49:45;-4.90;99.90
6964;DHT22;3522;50.856;7.278;2022-12-18T05:52:12;-4.90;99.90
6964;DHT22;3522;50.856;7.278;2022-12-18T05:54:38;-4.80;99.90
6964;DHT22;3522;50.856;7.278;2022-12-18T05:57:05;-4.80;99.90
6964;DHT22;3522;50.856;7.278;2022-12-18T05:59:32;-4.80;99.90
6964;DHT22;3522;50.856;7.278;2022-12-18T06:01:58;-4.70;99.90
6964;DHT22;3522;50.856;7.278;2022-12-18T06:04:26;-4.70;99.90
6964;DHT22;3522;50.856;7.278;2022-12-18T06:06:54;-4.70;99.90
6964;DHT22;3522;50.856;7.278;2022-12-18T06:09:20;-4.70;99.90
6964;DHT22;3522;50.856;7.278;2022-12-18T06:11:47;-4.70;99.90
6964;DHT22;3522;50.856;7.278;2022-12-18T06:14:13;-4.70;99.90
6964;DHT22;3522;50.856;7.278;2022-12-18T06:16:42;-4.70;99.90
6964;DHT22;3522;50.856;7.278;2022-12-18T06:19:12;-4.70;99.90
6964;DHT22;3522;50.856;7.278;2022-12-18T06:21:39;-4.70;99.90
6964;DHT22;3522;50.856;7.278;2022-12-18T06:24:07;-4.70;99.90
6964;DHT22;3522;50.856;7.278;2022-12-18T06:26:36;-4.60;99.90
6964;DHT22;3522;50.856;7.278;2022-12-18T06:29:02;-4.60;99.90
6964;DHT22;3522;50.856;7.278;2022-12-18T06:31:29;-4.60;99.90
6964;DHT22;3522;50.856;7.278;2022-12-18T06:33:56;-4.60;99.90
6964;DHT22;3522;50.856;7.278;2022-12-18T06:36:22;-4.60;99.90
6964;DHT22;3522;50.856;7.278;2022-12-18T06:38:49;-4.60;99.90
6964;DHT22;3522;50.856;7.278;2022-12-18T06:41:18;-4.60;99.90
6964;DHT22;3522;50.856;7.278;2022-12-18T06:43:45;-4.60;99.90
6964;DHT22;3522;50.856;7.278;2022-12-18T06:46:12;-4.60;99.90
6964;DHT22;3522;50.856;7.278;2022-12-18T06:48:38;-4.50;99.90
6964;DHT22;3522;50.856;7.278;2022-12-18T06:51:05;-4.50;99.90
6964;DHT22;3522;50.856;7.278;2022-12-18T06:53:32;-4.50;99.90
6964;DHT22;3522;50.856;7.278;2022-12-18T06:55:59;-4.60;99.90
6964;DHT22;3522;50.856;7.278;2022-12-18T06:58:28;-4.50;99.90
6964;DHT22;3522;50.856;7.278;2022-12-18T07:00:58;-4.50;99.90
6964;DHT22;3522;50.856;7.278;2022-12-18T07:03:25;-4.50;99.90
6964;DHT22;3522;50.856;7.278;2022-12-18T07:05:52;-4.50;99.90
6964;DHT22;3522;50.856;7.278;2022-12-18T07:08:18;-4.50;99.90
6964;DHT22;3522;50.856;7.278;2022-12-18T07:10:45;-4.50;99.90
6964;DHT22;3522;50.856;7.278;2022-12-18T07:13:11;-4.50;99.90
6964;DHT22;3522;50.856;7.278;2022-12-18T07:15:39;-4.50;99.90
6964;DHT22;3522;50.856;7.278;2022-12-18T07:18:06;-4.40;99.90
6964;DHT22;3522;50.856;7.278;2022-12-18T07:20:32;-4.40;99.90
6964;DHT22;3522;50.856;7.278;2022-12-18T07:23:01;-4.40;99.90
6964;DHT22;3522;50.856;7.278;2022-12-18T07:25:27;-4.40;99.90
6964;DHT22;3522;50.856;7.278;2022-12-18T07:27:54;-4.40;99.90
6964;DHT22;3522;50.856;7.278;2022-12-18T07:30:21;-4.40;99.90
6964;DHT22;3522;50.856;7.278;2022-12-18T07:32:48;-4.40;99.90
6964;DHT22;3522;50.856;7.278;2022-12-18T07:35:15;-4.40;99.90
6964;DHT22;3522;50.856;7.278;2022-12-18T07:37:42;-4.40;99.90
6964;DHT22;3522;50.856;7.278;2022-12-18T07:40:09;-4.40;99.90
6964;DHT22;3522;50.856;7.278;2022-12-18T07:42:35;-4.40;99.90
6964;DHT22;3522;50.856;7.278;2022-12-18T07:45:03;-4.40;99.90
6964;DHT22;3522;50.856;7.278;2022-12-18T07:47:29;-4.40;99.90
6964;DHT22;3522;50.856;7.278;2022-12-18T07:49:57;-4.40;99.90
6964;DHT22;3522;50.856;7.278;2022-12-18T07:52:24;-4.50;99.90
6964;DHT22;3522;50.856;7.278;2022-12-18T07:54:50;-4.50;99.90
6964;DHT22;3522;50.856;7.278;2022-12-18T07:57:17;-4.50;99.90
6964;DHT22;3522;50.856;7.278;2022-12-18T07:59:43;-4.50;99.90
6964;DHT22;3522;50.856;7.278;2022-12-18T08:02:10;-4.50;99.90
6964;DHT22;3522;50.856;7.278;2022-12-18T08:04:37;-4.50;99.90
6964;DHT22;3522;50.856;7.278;2022-12-18T08:07:05;-4.40;99.90
6964;DHT22;3522;50.856;7.278;2022-12-18T08:09:31;-4.40;99.90
6964;DHT22;3522;50.856;7.278;2022-12-18T08:11:58;-4.40;99.90
6964;DHT22;3522;50.856;7.278;2022-12-18T08:14:24;-4.30;99.90
6964;DHT22;3522;50.856;7.278;2022-12-18T08:16:51;-4.30;99.90
6964;DHT22;3522;50.856;7.278;2022-12-18T08:19:17;-4.30;99.90
6964;DHT22;3522;50.856;7.278;2022-12-18T08:21:44;-4.20;99.90
6964;DHT22;3522;50.856;7.278;2022-12-18T08:24:12;-4.20;99.90
6964;DHT22;3522;50.856;7.278;2022-12-18T08:26:39;-4.10;99.90
6964;DHT22;3522;50.856;7.278;2022-12-18T08:29:05;-4.10;99.90
6964;DHT22;3522;50.856;7.278;2022-12-18T08:31:32;-4.00;99.90
6964;DHT22;3522;50.856;7.278;2022-12-18T08:33:59;-4.00;99.90
6964;DHT22;3522;50.856;7.278;2022-12-18T08:36:26;-3.90;99.90
6964;DHT22;3522;50.856;7.278;2022-12-18T08:38:52;-3.90;99.90
6964;DHT22;3522;50.856;7.278;2022-12-18T08:41:20;-3.80;99.90
6964;DHT22;3522;50.856;7.278;2022-12-18T08:43:47;-3.70;99.90
6964;DHT22;3522;50.856;7.278;2022-12-18T08:46:32;-3.70;99.90
6964;DHT22;3522;50.856;7.278;2022-12-18T08:49:00;-3.60;99.90
6964;DHT22;3522;50.856;7.278;2022-12-18T08:51:26;-3.60;99.90
6964;DHT22;3522;50.856;7.278;2022-12-18T08:53:53;-3.50;99.90
6964;DHT22;3522;50.856;7.278;2022-12-18T08:56:21;-3.50;99.90
6964;DHT22;3522;50.856;7.278;2022-12-18T08:58:47;-3.40;99.90
6964;DHT22;3522;50.856;7.278;2022-12-18T09:01:17;-3.40;99.90
6964;DHT22;3522;50.856;7.278;2022-12-18T09:03:43;-3.40;99.90
6964;DHT22;3522;50.856;7.278;2022-12-18T09:06:12;-3.30;99.90
6964;DHT22;3522;50.856;7.278;2022-12-18T09:08:39;-3.30;99.90
6964;DHT22;3522;50.856;7.278;2022-12-18T09:11:09;-3.20;99.90
6964;DHT22;3522;50.856;7.278;2022-12-18T09:13:39;-3.10;99.90
6964;DHT22;3522;50.856;7.278;2022-12-18T09:16:06;-3.10;99.90
6964;DHT22;3522;50.856;7.278;2022-12-18T09:18:32;-3.00;99.90
6964;DHT22;3522;50.856;7.278;2022-12-18T09:20:59;-2.90;99.90
6964;DHT22;3522;50.856;7.278;2022-12-18T09:23:25;-2.80;99.90
6964;DHT22;3522;50.856;7.278;2022-12-18T09:25:52;-2.70;99.90
6964;DHT22;3522;50.856;7.278;2022-12-18T09:28:24;-2.70;99.90
6964;DHT22;3522;50.856;7.278;2022-12-18T09:30:52;-2.70;99.90
6964;DHT22;3522;50.856;7.278;2022-12-18T09:33:19;-2.60;99.90
6964;DHT22;3522;50.856;7.278;2022-12-18T09:35:45;-2.60;99.90
6964;DHT22;3522;50.856;7.278;2022-12-18T09:38:12;-2.50;99.90
6964;DHT22;3522;50.856;7.278;2022-12-18T09:40:41;-2.50;99.90
6964;DHT22;3522;50.856;7.278;2022-12-18T09:43:09;-2.40;99.90
6964;DHT22;3522;50.856;7.278;2022-12-18T09:45:41;-2.30;99.90
6964;DHT22;3522;50.856;7.278;2022-12-18T09:48:10;-2.20;99.90
6964;DHT22;3522;50.856;7.278;2022-12-18T09:50:40;-2.10;99.90
6964;DHT22;3522;50.856;7.278;2022-12-18T09:53:08;-2.00;99.90
6964;DHT22;3522;50.856;7.278;2022-12-18T09:55:39;-1.90;99.90
6964;DHT22;3522;50.856;7.278;2022-12-18T09:58:10;-1.80;99.90
6964;DHT22;3522;50.856;7.278;2022-12-18T10:00:39;-1.80;99.90
6964;DHT22;3522;50.856;7.278;2022-12-18T10:03:08;-1.70;99.90
6964;DHT22;3522;50.856;7.278;2022-12-18T10:05:38;-1.60;99.90
6964;DHT22;3522;50.856;7.278;2022-12-18T10:08:08;-1.60;99.90
6964;DHT22;3522;50.856;7.278;2022-12-18T10:10:38;-1.50;99.90
6964;DHT22;3522;50.856;7.278;2022-12-18T10:13:08;-1.50;99.90
6964;DHT22;3522;50.856;7.278;2022-12-18T10:15:38;-1.40;99.90
6964;DHT22;3522;50.856;7.278;2022-12-18T10:18:12;-1.40;99.90
6964;DHT22;3522;50.856;7.278;2022-12-18T10:20:43;-1.40;99.90
6964;DHT22;3522;50.856;7.278;2022-12-18T10:23:12;-1.20;99.90
6964;DHT22;3522;50.856;7.278;2022-12-18T10:25:50;-1.20;99.90
6964;DHT22;3522;50.856;7.278;2022-12-18T10:28:19;-1.10;99.90
6964;DHT22;3522;50.856;7.278;2022-12-18T10:30:46;-1.10;99.90
6964;DHT22;3522;50.856;7.278;2022-12-18T10:33:13;-1.00;99.90
6964;DHT22;3522;50.856;7.278;2022-12-18T10:35:43;-0.90;99.90
6964;DHT22;3522;50.856;7.278;2022-12-18T10:38:20;-0.90;99.90
6964;DHT22;3522;50.856;7.278;2022-12-18T10:40:49;-0.80;99.90
6964;DHT22;3522;50.856;7.278;2022-12-18T10:43:16;-0.70;99.90
6964;DHT22;3522;50.856;7.278;2022-12-18T10:45:58;-0.60;99.90
6964;DHT22;3522;50.856;7.278;2022-12-18T10:48:25;-0.60;99.90
6964;DHT22;3522;50.856;7.278;2022-12-18T10:50:54;-0.50;99.90
6964;DHT22;3522;50.856;7.278;2022-12-18T10:53:21;-0.50;99.90
6964;DHT22;3522;50.856;7.278;2022-12-18T10:55:48;-0.40;99.90
6964;DHT22;3522;50.856;7.278;2022-12-18T10:58:16;-0.40;99.90
6964;DHT22;3522;50.856;7.278;2022-12-18T11:00:43;-0.30;99.90
6964;DHT22;3522;50.856;7.278;2022-12-18T11:03:28;-0.30;99.90
6964;DHT22;3522;50.856;7.278;2022-12-18T11:06:02;-0.30;99.90
6964;DHT22;3522;50.856;7.278;2022-12-18T11:08:29;-0.30;99.90
6964;DHT22;3522;50.856;7.278;2022-12-18T11:10:56;-0.30;99.90
6964;DHT22;3522;50.856;7.278;2022-12-18T11:13:23;-0.30;99.90
6964;DHT22;3522;50.856;7.278;2022-12-18T11:15:50;-0.30;99.90
6964;DHT22;3522;50.856;7.278;2022-12-18T11:18:17;-0.30;99.90
6964;DHT22;3522;50.856;7.278;2022-12-18T11:20:49;-0.40;99.90
6964;DHT22;3522;50.856;7.278;2022-12-18T11:23:18;-0.40;99.90
6964;DHT22;3522;50.856;7.278;2022-12-18T11:25:50;-0.50;99.90
6964;DHT22;3522;50.856;7.278;2022-12-18T11:28:25;-0.50;99.90
6964;DHT22;3522;50.856;7.278;2022-12-18T11:30:54;-0.50;99.90
6964;DHT22;3522;50.856;7.278;2022-12-18T11:33:34;-0.50;99.90
6964;DHT22;3522;50.856;7.278;2022-12-18T11:36:03;-0.50;99.90
6964;DHT22;3522;50.856;7.278;2022-12-18T11:38:32;-0.50;99.90
6964;DHT22;3522;50.856;7.278;2022-12-18T11:41:02;-0.50;99.90
6964;DHT22;3522;50.856;7.278;2022-12-18T11:43:31;-0.50;99.90
6964;DHT22;3522;50.856;7.278;2022-12-18T11:45:59;-0.50;99.90
6964;DHT22;3522;50.856;7.278;2022-12-18T11:48:27;-0.50;99.90
6964;DHT22;3522;50.856;7.278;2022-12-18T11:50:55;-0.60;99.90
6964;DHT22;3522;50.856;7.278;2022-12-18T11:53:22;-0.60;99.90
6964;DHT22;3522;50.856;7.278;2022-12-18T11:56:00;-0.60;99.90
